Terminal Aerodrome Forecast
Issued by NWS

Home | Current Version | Previous Version | Text Only | Print | Product List | Glossary On
Versions: 1 2 3 4 5 6 7 8 9 10 11 12 13 14 15 16 17
000
FTUS41 KBTV 031725
TAFRUT
TAF
KRUT 031725Z 0318/0418 03005KT P6SM BKN025
     FM032100 10004KT P6SM BKN040
     FM040700 13004KT P6SM BKN030=

USA.gov is the U.S. government's official web portal to all federal, state and local government web resources and services.